sensor_id;sensor_type;location;lat;lon;timestamp;P1;durP1;ratioP1;P2;durP2;ratioP2
15480;SDS011;7842;50.904;6.670;2023-05-07T00:00:36;10.02;;;9.02;;
15480;SDS011;7842;50.904;6.670;2023-05-07T00:03:02;10.27;;;9.17;;
15480;SDS011;7842;50.904;6.670;2023-05-07T00:05:28;11.27;;;9.90;;
15480;SDS011;7842;50.904;6.670;2023-05-07T00:07:53;10.70;;;9.60;;
15480;SDS011;7842;50.904;6.670;2023-05-07T00:10:19;11.52;;;10.40;;
15480;SDS011;7842;50.904;6.670;2023-05-07T00:12:45;11.63;;;10.43;;
15480;SDS011;7842;50.904;6.670;2023-05-07T00:15:10;11.88;;;10.57;;
15480;SDS011;7842;50.904;6.670;2023-05-07T00:17:36;11.85;;;10.60;;
15480;SDS011;7842;50.904;6.670;2023-05-07T00:20:02;11.95;;;10.75;;
15480;SDS011;7842;50.904;6.670;2023-05-07T00:22:29;12.27;;;10.38;;
15480;SDS011;7842;50.904;6.670;2023-05-07T00:24:56;11.80;;;10.43;;
15480;SDS011;7842;50.904;6.670;2023-05-07T00:27:22;11.87;;;10.67;;
15480;SDS011;7842;50.904;6.670;2023-05-07T00:29:47;13.37;;;11.70;;
15480;SDS011;7842;50.904;6.670;2023-05-07T00:32:13;12.90;;;11.50;;
15480;SDS011;7842;50.904;6.670;2023-05-07T00:34:39;13.95;;;11.77;;
15480;SDS011;7842;50.904;6.670;2023-05-07T00:37:04;14.02;;;12.18;;
15480;SDS011;7842;50.904;6.670;2023-05-07T00:39:32;13.82;;;12.13;;
15480;SDS011;7842;50.904;6.670;2023-05-07T00:41:58;14.15;;;12.23;;
15480;SDS011;7842;50.904;6.670;2023-05-07T00:44:24;13.27;;;11.90;;
15480;SDS011;7842;50.904;6.670;2023-05-07T00:46:50;14.30;;;12.80;;
15480;SDS011;7842;50.904;6.670;2023-05-07T00:49:16;18.80;;;16.08;;
15480;SDS011;7842;50.904;6.670;2023-05-07T00:51:41;19.30;;;15.90;;
15480;SDS011;7842;50.904;6.670;2023-05-07T00:54:07;21.23;;;17.10;;
15480;SDS011;7842;50.904;6.670;2023-05-07T00:56:34;20.92;;;17.60;;
15480;SDS011;7842;50.904;6.670;2023-05-07T00:59:01;23.38;;;18.02;;
15480;SDS011;7842;50.904;6.670;2023-05-07T01:01:27;24.08;;;18.05;;
15480;SDS011;7842;50.904;6.670;2023-05-07T01:03:53;23.40;;;18.63;;
15480;SDS011;7842;50.904;6.670;2023-05-07T01:06:19;24.67;;;19.17;;
15480;SDS011;7842;50.904;6.670;2023-05-07T01:08:46;26.25;;;20.58;;
15480;SDS011;7842;50.904;6.670;2023-05-07T01:11:15;26.60;;;20.08;;
15480;SDS011;7842;50.904;6.670;2023-05-07T01:13:44;26.58;;;20.60;;
15480;SDS011;7842;50.904;6.670;2023-05-07T01:16:10;26.50;;;20.58;;
15480;SDS011;7842;50.904;6.670;2023-05-07T01:18:36;31.70;;;22.48;;
15480;SDS011;7842;50.904;6.670;2023-05-07T01:21:01;33.43;;;24.47;;
15480;SDS011;7842;50.904;6.670;2023-05-07T01:23:29;34.75;;;25.50;;
15480;SDS011;7842;50.904;6.670;2023-05-07T01:25:55;34.03;;;26.23;;
15480;SDS011;7842;50.904;6.670;2023-05-07T01:28:21;34.22;;;26.52;;
15480;SDS011;7842;50.904;6.670;2023-05-07T01:30:48;35.40;;;26.80;;
15480;SDS011;7842;50.904;6.670;2023-05-07T01:33:18;36.60;;;26.52;;
15480;SDS011;7842;50.904;6.670;2023-05-07T01:35:50;36.10;;;26.27;;
15480;SDS011;7842;50.904;6.670;2023-05-07T01:38:18;38.00;;;27.95;;
15480;SDS011;7842;50.904;6.670;2023-05-07T01:40:46;37.15;;;28.08;;
15480;SDS011;7842;50.904;6.670;2023-05-07T01:43:12;36.03;;;27.30;;
15480;SDS011;7842;50.904;6.670;2023-05-07T01:45:38;35.90;;;26.52;;
15480;SDS011;7842;50.904;6.670;2023-05-07T01:48:05;37.83;;;27.80;;
15480;SDS011;7842;50.904;6.670;2023-05-07T01:50:32;35.40;;;26.67;;
15480;SDS011;7842;50.904;6.670;2023-05-07T01:52:59;34.35;;;25.13;;
15480;SDS011;7842;50.904;6.670;2023-05-07T01:55:26;34.58;;;26.88;;
15480;SDS011;7842;50.904;6.670;2023-05-07T01:57:52;34.72;;;25.80;;
15480;SDS011;7842;50.904;6.670;2023-05-07T02:00:18;36.10;;;26.23;;
15480;SDS011;7842;50.904;6.670;2023-05-07T02:02:44;33.90;;;25.30;;
15480;SDS011;7842;50.904;6.670;2023-05-07T02:05:09;36.03;;;25.60;;
15480;SDS011;7842;50.904;6.670;2023-05-07T02:07:35;34.90;;;24.43;;
15480;SDS011;7842;50.904;6.670;2023-05-07T02:10:01;34.67;;;24.70;;
15480;SDS011;7842;50.904;6.670;2023-05-07T02:12:27;31.27;;;23.83;;
15480;SDS011;7842;50.904;6.670;2023-05-07T02:14:53;31.35;;;22.90;;
15480;SDS011;7842;50.904;6.670;2023-05-07T02:17:19;31.60;;;24.30;;
15480;SDS011;7842;50.904;6.670;2023-05-07T02:19:45;31.48;;;23.35;;
15480;SDS011;7842;50.904;6.670;2023-05-07T02:22:10;32.22;;;22.70;;
15480;SDS011;7842;50.904;6.670;2023-05-07T02:24:36;30.60;;;23.83;;
15480;SDS011;7842;50.904;6.670;2023-05-07T02:27:01;33.07;;;25.50;;
15480;SDS011;7842;50.904;6.670;2023-05-07T02:29:28;33.13;;;25.83;;
15480;SDS011;7842;50.904;6.670;2023-05-07T02:31:54;36.05;;;26.80;;
15480;SDS011;7842;50.904;6.670;2023-05-07T02:34:20;32.53;;;24.92;;
15480;SDS011;7842;50.904;6.670;2023-05-07T02:36:46;32.10;;;24.73;;
15480;SDS011;7842;50.904;6.670;2023-05-07T02:39:12;31.13;;;23.77;;
15480;SDS011;7842;50.904;6.670;2023-05-07T02:41:38;31.17;;;23.13;;
15480;SDS011;7842;50.904;6.670;2023-05-07T02:44:04;29.10;;;22.45;;
15480;SDS011;7842;50.904;6.670;2023-05-07T02:46:30;28.13;;;20.75;;
15480;SDS011;7842;50.904;6.670;2023-05-07T02:48:55;27.48;;;21.13;;
15480;SDS011;7842;50.904;6.670;2023-05-07T02:51:21;26.67;;;20.50;;
15480;SDS011;7842;50.904;6.670;2023-05-07T02:53:47;28.80;;;20.80;;
15480;SDS011;7842;50.904;6.670;2023-05-07T02:56:13;27.10;;;19.85;;
15480;SDS011;7842;50.904;6.670;2023-05-07T02:58:39;27.93;;;19.90;;
15480;SDS011;7842;50.904;6.670;2023-05-07T03:01:05;24.42;;;19.58;;
15480;SDS011;7842;50.904;6.670;2023-05-07T03:03:31;25.47;;;20.13;;
15480;SDS011;7842;50.904;6.670;2023-05-07T03:05:56;25.00;;;19.73;;
15480;SDS011;7842;50.904;6.670;2023-05-07T03:08:22;24.98;;;19.20;;
15480;SDS011;7842;50.904;6.670;2023-05-07T03:10:48;25.55;;;19.55;;
15480;SDS011;7842;50.904;6.670;2023-05-07T03:13:13;24.60;;;18.93;;
15480;SDS011;7842;50.904;6.670;2023-05-07T03:15:39;24.40;;;18.30;;
15480;SDS011;7842;50.904;6.670;2023-05-07T03:18:05;23.00;;;18.23;;
15480;SDS011;7842;50.904;6.670;2023-05-07T03:20:31;22.40;;;18.33;;
15480;SDS011;7842;50.904;6.670;2023-05-07T03:22:56;23.05;;;18.33;;
15480;SDS011;7842;50.904;6.670;2023-05-07T03:25:22;22.40;;;17.53;;
15480;SDS011;7842;50.904;6.670;2023-05-07T03:27:48;22.70;;;17.97;;
15480;SDS011;7842;50.904;6.670;2023-05-07T03:30:13;21.02;;;17.15;;
15480;SDS011;7842;50.904;6.670;2023-05-07T03:32:39;23.83;;;17.25;;
15480;SDS011;7842;50.904;6.670;2023-05-07T03:35:05;19.83;;;16.33;;
15480;SDS011;7842;50.904;6.670;2023-05-07T03:37:31;20.25;;;16.00;;
15480;SDS011;7842;50.904;6.670;2023-05-07T03:39:57;18.65;;;15.02;;
15480;SDS011;7842;50.904;6.670;2023-05-07T03:42:23;17.27;;;14.15;;
15480;SDS011;7842;50.904;6.670;2023-05-07T03:44:49;19.48;;;14.15;;
15480;SDS011;7842;50.904;6.670;2023-05-07T03:47:14;18.87;;;14.30;;
15480;SDS011;7842;50.904;6.670;2023-05-07T03:49:40;16.93;;;13.27;;
15480;SDS011;7842;50.904;6.670;2023-05-07T03:52:06;17.02;;;13.18;;
15480;SDS011;7842;50.904;6.670;2023-05-07T03:54:31;16.00;;;12.90;;
15480;SDS011;7842;50.904;6.670;2023-05-07T03:56:57;15.23;;;12.03;;
15480;SDS011;7842;50.904;6.670;2023-05-07T03:59:23;14.97;;;11.93;;
15480;SDS011;7842;50.904;6.670;2023-05-07T04:01:48;15.63;;;11.98;;
15480;SDS011;7842;50.904;6.670;2023-05-07T04:04:14;15.77;;;11.98;;
15480;SDS011;7842;50.904;6.670;2023-05-07T04:06:40;13.85;;;11.45;;
15480;SDS011;7842;50.904;6.670;2023-05-07T04:09:06;13.00;;;10.63;;
15480;SDS011;7842;50.904;6.670;2023-05-07T04:11:32;12.57;;;10.48;;
15480;SDS011;7842;50.904;6.670;2023-05-07T04:13:58;13.82;;;11.25;;
15480;SDS011;7842;50.904;6.670;2023-05-07T04:16:23;12.60;;;10.00;;
15480;SDS011;7842;50.904;6.670;2023-05-07T04:18:49;17.80;;;15.53;;
15480;SDS011;7842;50.904;6.670;2023-05-07T04:21:15;16.95;;;13.75;;
15480;SDS011;7842;50.904;6.670;2023-05-07T04:23:42;15.77;;;12.85;;
15480;SDS011;7842;50.904;6.670;2023-05-07T04:26:07;13.15;;;10.73;;
15480;SDS011;7842;50.904;6.670;2023-05-07T04:28:34;13.32;;;10.98;;
15480;SDS011;7842;50.904;6.670;2023-05-07T04:31:01;13.20;;;10.70;;
15480;SDS011;7842;50.904;6.670;2023-05-07T04:33:29;12.27;;;9.90;;
15480;SDS011;7842;50.904;6.670;2023-05-07T04:35:54;12.90;;;10.05;;
15480;SDS011;7842;50.904;6.670;2023-05-07T04:38:20;13.18;;;10.80;;
15480;SDS011;7842;50.904;6.670;2023-05-07T04:40:46;12.80;;;10.05;;
15480;SDS011;7842;50.904;6.670;2023-05-07T04:43:12;12.57;;;10.23;;
15480;SDS011;7842;50.904;6.670;2023-05-07T04:45:38;13.00;;;10.23;;
15480;SDS011;7842;50.904;6.670;2023-05-07T04:48:06;12.95;;;10.70;;
15480;SDS011;7842;50.904;6.670;2023-05-07T04:50:32;12.43;;;10.85;;
15480;SDS011;7842;50.904;6.670;2023-05-07T04:52:58;13.55;;;11.43;;
15480;SDS011;7842;50.904;6.670;2023-05-07T04:55:23;12.60;;;11.30;;
15480;SDS011;7842;50.904;6.670;2023-05-07T04:57:49;13.68;;;11.85;;
15480;SDS011;7842;50.904;6.670;2023-05-07T05:00:15;13.68;;;12.18;;
15480;SDS011;7842;50.904;6.670;2023-05-07T05:02:41;14.77;;;12.80;;
15480;SDS011;7842;50.904;6.670;2023-05-07T05:05:07;13.53;;;12.13;;
15480;SDS011;7842;50.904;6.670;2023-05-07T05:07:33;13.90;;;11.63;;
15480;SDS011;7842;50.904;6.670;2023-05-07T05:09:58;13.07;;;11.10;;
15480;SDS011;7842;50.904;6.670;2023-05-07T05:12:24;12.60;;;11.30;;
15480;SDS011;7842;50.904;6.670;2023-05-07T05:14:50;12.67;;;11.30;;
15480;SDS011;7842;50.904;6.670;2023-05-07T05:17:16;13.83;;;11.63;;
15480;SDS011;7842;50.904;6.670;2023-05-07T05:19:41;13.17;;;11.63;;
15480;SDS011;7842;50.904;6.670;2023-05-07T05:22:07;12.88;;;11.27;;
15480;SDS011;7842;50.904;6.670;2023-05-07T05:24:32;11.70;;;10.50;;
15480;SDS011;7842;50.904;6.670;2023-05-07T05:26:58;13.73;;;10.63;;
15480;SDS011;7842;50.904;6.670;2023-05-07T05:29:26;12.05;;;10.85;;
15480;SDS011;7842;50.904;6.670;2023-05-07T05:31:51;12.13;;;10.93;;
15480;SDS011;7842;50.904;6.670;2023-05-07T05:34:17;11.83;;;10.63;;
15480;SDS011;7842;50.904;6.670;2023-05-07T05:36:44;11.25;;;10.07;;
15480;SDS011;7842;50.904;6.670;2023-05-07T05:39:13;12.50;;;11.20;;
15480;SDS011;7842;50.904;6.670;2023-05-07T05:41:39;11.50;;;10.35;;
15480;SDS011;7842;50.904;6.670;2023-05-07T05:44:05;12.23;;;10.45;;
15480;SDS011;7842;50.904;6.670;2023-05-07T05:46:30;12.15;;;10.63;;
15480;SDS011;7842;50.904;6.670;2023-05-07T05:48:56;11.33;;;10.23;;
15480;SDS011;7842;50.904;6.670;2023-05-07T05:51:21;12.10;;;10.83;;
15480;SDS011;7842;50.904;6.670;2023-05-07T05:53:48;11.32;;;10.13;;
15480;SDS011;7842;50.904;6.670;2023-05-07T05:56:13;11.80;;;10.60;;
15480;SDS011;7842;50.904;6.670;2023-05-07T05:58:40;11.50;;;10.23;;
15480;SDS011;7842;50.904;6.670;2023-05-07T06:01:06;10.35;;;9.25;;
15480;SDS011;7842;50.904;6.670;2023-05-07T06:03:32;9.23;;;8.32;;
15480;SDS011;7842;50.904;6.670;2023-05-07T06:05:57;9.43;;;8.43;;
15480;SDS011;7842;50.904;6.670;2023-05-07T06:08:24;9.43;;;8.37;;
15480;SDS011;7842;50.904;6.670;2023-05-07T06:10:50;9.37;;;8.40;;
15480;SDS011;7842;50.904;6.670;2023-05-07T06:13:16;9.25;;;8.05;;
15480;SDS011;7842;50.904;6.670;2023-05-07T06:15:42;9.05;;;8.15;;
15480;SDS011;7842;50.904;6.670;2023-05-07T06:18:07;9.10;;;8.20;;
15480;SDS011;7842;50.904;6.670;2023-05-07T06:20:33;9.93;;;7.90;;
15480;SDS011;7842;50.904;6.670;2023-05-07T06:22:59;8.38;;;7.57;;
15480;SDS011;7842;50.904;6.670;2023-05-07T06:25:24;10.00;;;7.43;;
15480;SDS011;7842;50.904;6.670;2023-05-07T06:27:50;8.63;;;7.77;;
15480;SDS011;7842;50.904;6.670;2023-05-07T06:30:16;8.17;;;7.37;;
15480;SDS011;7842;50.904;6.670;2023-05-07T06:32:41;9.65;;;7.40;;
15480;SDS011;7842;50.904;6.670;2023-05-07T06:35:07;7.70;;;6.90;;
15480;SDS011;7842;50.904;6.670;2023-05-07T06:37:33;8.20;;;7.10;;
15480;SDS011;7842;50.904;6.670;2023-05-07T06:39:58;8.30;;;7.40;;
15480;SDS011;7842;50.904;6.670;2023-05-07T06:42:24;8.13;;;7.13;;
15480;SDS011;7842;50.904;6.670;2023-05-07T06:44:50;9.63;;;6.90;;
15480;SDS011;7842;50.904;6.670;2023-05-07T06:47:15;8.20;;;7.20;;
15480;SDS011;7842;50.904;6.670;2023-05-07T06:49:41;9.75;;;8.00;;
15480;SDS011;7842;50.904;6.670;2023-05-07T06:52:07;8.40;;;7.57;;
15480;SDS011;7842;50.904;6.670;2023-05-07T06:54:32;9.38;;;8.10;;
15480;SDS011;7842;50.904;6.670;2023-05-07T06:56:58;8.50;;;7.70;;
15480;SDS011;7842;50.904;6.670;2023-05-07T06:59:25;7.95;;;7.18;;
15480;SDS011;7842;50.904;6.670;2023-05-07T07:01:52;9.60;;;7.82;;
15480;SDS011;7842;50.904;6.670;2023-05-07T07:04:19;8.35;;;7.47;;
15480;SDS011;7842;50.904;6.670;2023-05-07T07:06:47;8.10;;;7.22;;
15480;SDS011;7842;50.904;6.670;2023-05-07T07:09:14;7.53;;;6.50;;
15480;SDS011;7842;50.904;6.670;2023-05-07T07:11:42;7.90;;;7.10;;
15480;SDS011;7842;50.904;6.670;2023-05-07T07:14:08;8.38;;;7.47;;
15480;SDS011;7842;50.904;6.670;2023-05-07T07:16:35;7.45;;;6.65;;
15480;SDS011;7842;50.904;6.670;2023-05-07T07:19:01;9.63;;;8.00;;
15480;SDS011;7842;50.904;6.670;2023-05-07T07:21:28;8.65;;;7.60;;
15480;SDS011;7842;50.904;6.670;2023-05-07T07:23:55;8.90;;;7.97;;
15480;SDS011;7842;50.904;6.670;2023-05-07T07:26:21;8.40;;;7.60;;
15480;SDS011;7842;50.904;6.670;2023-05-07T07:28:46;8.27;;;7.30;;
15480;SDS011;7842;50.904;6.670;2023-05-07T07:31:12;8.82;;;7.40;;
15480;SDS011;7842;50.904;6.670;2023-05-07T07:33:38;8.40;;;7.13;;
15480;SDS011;7842;50.904;6.670;2023-05-07T07:36:05;8.38;;;7.15;;
15480;SDS011;7842;50.904;6.670;2023-05-07T07:38:32;7.10;;;6.17;;
15480;SDS011;7842;50.904;6.670;2023-05-07T07:41:03;7.70;;;6.57;;
15480;SDS011;7842;50.904;6.670;2023-05-07T07:43:38;7.67;;;6.50;;
15480;SDS011;7842;50.904;6.670;2023-05-07T07:46:03;8.20;;;6.13;;
15480;SDS011;7842;50.904;6.670;2023-05-07T07:48:31;6.85;;;6.03;;
15480;SDS011;7842;50.904;6.670;2023-05-07T07:50:58;6.78;;;5.68;;
15480;SDS011;7842;50.904;6.670;2023-05-07T07:53:24;7.10;;;5.15;;
15480;SDS011;7842;50.904;6.670;2023-05-07T07:55:50;4.80;;;4.30;;
15480;SDS011;7842;50.904;6.670;2023-05-07T07:58:17;4.72;;;4.25;;
15480;SDS011;7842;50.904;6.670;2023-05-07T08:00:45;5.70;;;4.63;;
15480;SDS011;7842;50.904;6.670;2023-05-07T08:03:12;5.20;;;4.70;;
15480;SDS011;7842;50.904;6.670;2023-05-07T08:05:41;6.97;;;4.43;;
15480;SDS011;7842;50.904;6.670;2023-05-07T08:08:08;5.55;;;4.43;;
15480;SDS011;7842;50.904;6.670;2023-05-07T08:10:34;4.68;;;4.00;;
15480;SDS011;7842;50.904;6.670;2023-05-07T08:13:03;5.57;;;4.00;;
15480;SDS011;7842;50.904;6.670;2023-05-07T08:15:29;4.45;;;4.00;;
15480;SDS011;7842;50.904;6.670;2023-05-07T08:17:55;5.13;;;4.20;;
15480;SDS011;7842;50.904;6.670;2023-05-07T08:20:22;4.53;;;3.75;;
15480;SDS011;7842;50.904;6.670;2023-05-07T08:22:48;4.60;;;3.80;;
15480;SDS011;7842;50.904;6.670;2023-05-07T08:25:13;3.80;;;3.40;;
15480;SDS011;7842;50.904;6.670;2023-05-07T08:27:39;4.50;;;3.50;;
15480;SDS011;7842;50.904;6.670;2023-05-07T08:30:05;4.67;;;3.53;;
15480;SDS011;7842;50.904;6.670;2023-05-07T08:32:31;4.13;;;3.72;;
15480;SDS011;7842;50.904;6.670;2023-05-07T08:34:56;4.47;;;3.90;;
15480;SDS011;7842;50.904;6.670;2023-05-07T08:37:22;4.63;;;3.87;;
15480;SDS011;7842;50.904;6.670;2023-05-07T08:39:48;4.35;;;3.63;;
15480;SDS011;7842;50.904;6.670;2023-05-07T08:42:13;4.17;;;3.70;;
15480;SDS011;7842;50.904;6.670;2023-05-07T08:44:42;4.93;;;3.85;;
15480;SDS011;7842;50.904;6.670;2023-05-07T08:47:13;4.25;;;3.80;;
15480;SDS011;7842;50.904;6.670;2023-05-07T08:49:40;4.30;;;3.90;;
15480;SDS011;7842;50.904;6.670;2023-05-07T08:52:06;4.45;;;3.63;;
15480;SDS011;7842;50.904;6.670;2023-05-07T08:54:32;4.80;;;3.45;;
15480;SDS011;7842;50.904;6.670;2023-05-07T08:56:58;4.82;;;4.00;;
15480;SDS011;7842;50.904;6.670;2023-05-07T08:59:24;4.00;;;3.60;;
15480;SDS011;7842;50.904;6.670;2023-05-07T09:01:50;4.35;;;3.25;;
15480;SDS011;7842;50.904;6.670;2023-05-07T09:04:16;5.40;;;3.60;;
15480;SDS011;7842;50.904;6.670;2023-05-07T09:06:45;4.27;;;3.43;;
15480;SDS011;7842;50.904;6.670;2023-05-07T09:09:16;3.70;;;3.03;;
15480;SDS011;7842;50.904;6.670;2023-05-07T09:11:45;3.67;;;3.38;;
15480;SDS011;7842;50.904;6.670;2023-05-07T09:14:11;3.80;;;3.17;;
15480;SDS011;7842;50.904;6.670;2023-05-07T09:16:38;3.80;;;3.40;;
15480;SDS011;7842;50.904;6.670;2023-05-07T09:19:04;4.72;;;3.58;;
15480;SDS011;7842;50.904;6.670;2023-05-07T09:21:32;3.45;;;3.15;;
15480;SDS011;7842;50.904;6.670;2023-05-07T09:23:58;3.90;;;3.30;;
15480;SDS011;7842;50.904;6.670;2023-05-07T09:26:24;3.97;;;3.45;;
15480;SDS011;7842;50.904;6.670;2023-05-07T09:28:50;3.70;;;3.35;;
15480;SDS011;7842;50.904;6.670;2023-05-07T09:31:17;3.40;;;3.10;;
15480;SDS011;7842;50.904;6.670;2023-05-07T09:33:44;2.97;;;2.50;;
15480;SDS011;7842;50.904;6.670;2023-05-07T09:36:10;3.75;;;2.60;;
15480;SDS011;7842;50.904;6.670;2023-05-07T09:38:36;3.83;;;2.40;;
15480;SDS011;7842;50.904;6.670;2023-05-07T09:41:03;2.60;;;2.33;;
15480;SDS011;7842;50.904;6.670;2023-05-07T09:43:31;3.25;;;2.60;;
15480;SDS011;7842;50.904;6.670;2023-05-07T09:46:00;2.70;;;2.47;;
15480;SDS011;7842;50.904;6.670;2023-05-07T09:48:28;3.17;;;2.60;;
15480;SDS011;7842;50.904;6.670;2023-05-07T09:50:55;3.75;;;2.60;;
15480;SDS011;7842;50.904;6.670;2023-05-07T09:53:23;2.58;;;2.38;;
15480;SDS011;7842;50.904;6.670;2023-05-07T09:55:50;4.32;;;2.70;;
15480;SDS011;7842;50.904;6.670;2023-05-07T09:58:16;3.25;;;2.72;;
15480;SDS011;7842;50.904;6.670;2023-05-07T10:00:43;3.50;;;2.53;;
15480;SDS011;7842;50.904;6.670;2023-05-07T10:03:10;3.57;;;2.63;;
15480;SDS011;7842;50.904;6.670;2023-05-07T10:05:36;3.42;;;2.50;;
15480;SDS011;7842;50.904;6.670;2023-05-07T10:08:05;3.65;;;2.70;;
15480;SDS011;7842;50.904;6.670;2023-05-07T10:10:32;3.53;;;3.20;;
15480;SDS011;7842;50.904;6.670;2023-05-07T10:12:58;4.40;;;3.10;;
15480;SDS011;7842;50.904;6.670;2023-05-07T10:15:24;3.85;;;3.05;;
15480;SDS011;7842;50.904;6.670;2023-05-07T10:17:51;5.05;;;3.47;;
15480;SDS011;7842;50.904;6.670;2023-05-07T10:20:18;4.10;;;3.22;;
15480;SDS011;7842;50.904;6.670;2023-05-07T10:22:44;4.03;;;2.97;;
15480;SDS011;7842;50.904;6.670;2023-05-07T10:25:18;4.33;;;3.27;;
15480;SDS011;7842;50.904;6.670;2023-05-07T10:27:48;3.50;;;3.10;;
15480;SDS011;7842;50.904;6.670;2023-05-07T10:30:35;4.35;;;3.58;;
15480;SDS011;7842;50.904;6.670;2023-05-07T10:33:03;5.30;;;3.47;;
15480;SDS011;7842;50.904;6.670;2023-05-07T10:35:36;3.90;;;3.00;;
15480;SDS011;7842;50.904;6.670;2023-05-07T10:38:05;5.00;;;3.27;;
15480;SDS011;7842;50.904;6.670;2023-05-07T10:40:31;4.22;;;3.00;;
15480;SDS011;7842;50.904;6.670;2023-05-07T10:42:58;4.10;;;3.60;;
15480;SDS011;7842;50.904;6.670;2023-05-07T10:45:25;4.32;;;3.35;;
15480;SDS011;7842;50.904;6.670;2023-05-07T10:50:40;4.10;;;3.13;;
15480;SDS011;7842;50.904;6.670;2023-05-07T10:55:46;3.92;;;3.58;;
15480;SDS011;7842;50.904;6.670;2023-05-07T10:58:23;4.45;;;3.58;;
15480;SDS011;7842;50.904;6.670;2023-05-07T11:00:55;3.58;;;3.28;;
15480;SDS011;7842;50.904;6.670;2023-05-07T11:03:25;3.60;;;3.30;;
15480;SDS011;7842;50.904;6.670;2023-05-07T11:08:52;3.95;;;3.33;;
15480;SDS011;7842;50.904;6.670;2023-05-07T11:11:17;4.00;;;2.97;;
15480;SDS011;7842;50.904;6.670;2023-05-07T11:13:45;3.50;;;3.20;;
15480;SDS011;7842;50.904;6.670;2023-05-07T11:16:18;3.43;;;3.13;;
15480;SDS011;7842;50.904;6.670;2023-05-07T11:18:51;3.60;;;3.30;;
15480;SDS011;7842;50.904;6.670;2023-05-07T11:21:36;3.90;;;3.40;;
15480;SDS011;7842;50.904;6.670;2023-05-07T11:24:07;4.43;;;3.20;;
15480;SDS011;7842;50.904;6.670;2023-05-07T11:29:27;3.97;;;2.90;;
15480;SDS011;7842;50.904;6.670;2023-05-07T11:31:54;3.47;;;3.10;;
15480;SDS011;7842;50.904;6.670;2023-05-07T11:34:21;4.13;;;3.13;;
15480;SDS011;7842;50.904;6.670;2023-05-07T11:36:47;3.13;;;2.80;;
15480;SDS011;7842;50.904;6.670;2023-05-07T11:39:27;4.00;;;2.97;;
15480;SDS011;7842;50.904;6.670;2023-05-07T11:41:54;3.33;;;3.03;;
15480;SDS011;7842;50.904;6.670;2023-05-07T11:44:20;3.42;;;2.90;;
15480;SDS011;7842;50.904;6.670;2023-05-07T11:46:46;3.30;;;3.00;;
15480;SDS011;7842;50.904;6.670;2023-05-07T11:49:11;4.05;;;2.80;;
15480;SDS011;7842;50.904;6.670;2023-05-07T11:51:37;3.70;;;3.10;;
15480;SDS011;7842;50.904;6.670;2023-05-07T11:54:04;4.75;;;3.20;;
15480;SDS011;7842;50.904;6.670;2023-05-07T11:56:34;3.20;;;2.90;;
15480;SDS011;7842;50.904;6.670;2023-05-07T11:59:00;3.35;;;2.78;;
15480;SDS011;7842;50.904;6.670;2023-05-07T12:01:26;2.97;;;2.60;;
15480;SDS011;7842;50.904;6.670;2023-05-07T12:03:54;2.90;;;2.60;;
15480;SDS011;7842;50.904;6.670;2023-05-07T12:06:19;2.67;;;2.47;;
15480;SDS011;7842;50.904;6.670;2023-05-07T12:08:45;3.58;;;2.65;;
15480;SDS011;7842;50.904;6.670;2023-05-07T12:11:24;3.10;;;2.80;;
15480;SDS011;7842;50.904;6.670;2023-05-07T12:13:50;4.10;;;2.97;;
15480;SDS011;7842;50.904;6.670;2023-05-07T12:16:17;3.22;;;2.72;;
15480;SDS011;7842;50.904;6.670;2023-05-07T12:18:43;3.35;;;3.00;;
15480;SDS011;7842;50.904;6.670;2023-05-07T12:21:10;3.13;;;2.83;;
15480;SDS011;7842;50.904;6.670;2023-05-07T12:23:39;3.83;;;3.13;;
15480;SDS011;7842;50.904;6.670;2023-05-07T12:26:05;3.42;;;3.13;;
15480;SDS011;7842;50.904;6.670;2023-05-07T12:28:31;3.63;;;2.80;;
15480;SDS011;7842;50.904;6.670;2023-05-07T12:31:05;3.95;;;2.67;;
15480;SDS011;7842;50.904;6.670;2023-05-07T12:33:32;2.90;;;2.42;;
15480;SDS011;7842;50.904;6.670;2023-05-07T12:36:02;2.60;;;2.40;;
15480;SDS011;7842;50.904;6.670;2023-05-07T12:38:32;2.75;;;2.55;;
15480;SDS011;7842;50.904;6.670;2023-05-07T12:41:03;2.67;;;2.45;;
15480;SDS011;7842;50.904;6.670;2023-05-07T12:43:29;3.00;;;2.80;;
15480;SDS011;7842;50.904;6.670;2023-05-07T12:46:00;4.17;;;2.77;;
15480;SDS011;7842;50.904;6.670;2023-05-07T12:48:28;3.45;;;3.10;;
15480;SDS011;7842;50.904;6.670;2023-05-07T12:50:54;3.63;;;3.23;;
15480;SDS011;7842;50.904;6.670;2023-05-07T12:53:22;3.88;;;3.58;;
15480;SDS011;7842;50.904;6.670;2023-05-07T12:55:50;5.00;;;4.50;;
15480;SDS011;7842;50.904;6.670;2023-05-07T13:00:50;7.20;;;5.70;;
15480;SDS011;7842;50.904;6.670;2023-05-07T13:03:21;7.45;;;5.75;;
15480;SDS011;7842;50.904;6.670;2023-05-07T13:06:00;7.43;;;6.30;;
15480;SDS011;7842;50.904;6.670;2023-05-07T13:08:30;10.95;;;7.50;;
15480;SDS011;7842;50.904;6.670;2023-05-07T13:11:00;6.43;;;5.60;;
15480;SDS011;7842;50.904;6.670;2023-05-07T13:13:35;5.50;;;5.00;;
15480;SDS011;7842;50.904;6.670;2023-05-07T13:16:02;6.18;;;5.57;;
15480;SDS011;7842;50.904;6.670;2023-05-07T13:18:31;7.50;;;5.97;;
15480;SDS011;7842;50.904;6.670;2023-05-07T13:20:58;9.95;;;7.63;;
15480;SDS011;7842;50.904;6.670;2023-05-07T13:23:25;6.82;;;6.13;;
15480;SDS011;7842;50.904;6.670;2023-05-07T13:25:50;7.10;;;6.40;;
15480;SDS011;7842;50.904;6.670;2023-05-07T13:28:18;7.40;;;6.68;;
15480;SDS011;7842;50.904;6.670;2023-05-07T13:30:46;6.78;;;6.05;;
15480;SDS011;7842;50.904;6.670;2023-05-07T13:33:16;7.47;;;6.78;;
15480;SDS011;7842;50.904;6.670;2023-05-07T13:35:42;7.68;;;6.47;;
15480;SDS011;7842;50.904;6.670;2023-05-07T13:38:09;7.32;;;6.63;;
15480;SDS011;7842;50.904;6.670;2023-05-07T13:40:34;7.75;;;6.95;;
15480;SDS011;7842;50.904;6.670;2023-05-07T13:43:00;6.07;;;5.27;;
15480;SDS011;7842;50.904;6.670;2023-05-07T13:45:31;7.50;;;4.30;;
15480;SDS011;7842;50.904;6.670;2023-05-07T13:47:56;5.70;;;4.10;;
15480;SDS011;7842;50.904;6.670;2023-05-07T13:50:23;4.27;;;3.80;;
15480;SDS011;7842;50.904;6.670;2023-05-07T13:52:48;3.93;;;2.90;;
15480;SDS011;7842;50.904;6.670;2023-05-07T13:55:20;4.35;;;2.80;;
15480;SDS011;7842;50.904;6.670;2023-05-07T13:57:47;2.47;;;2.25;;
15480;SDS011;7842;50.904;6.670;2023-05-07T14:00:13;2.60;;;2.00;;
15480;SDS011;7842;50.904;6.670;2023-05-07T14:02:41;2.17;;;1.50;;
15480;SDS011;7842;50.904;6.670;2023-05-07T14:05:07;2.80;;;2.13;;
15480;SDS011;7842;50.904;6.670;2023-05-07T14:07:34;2.30;;;1.60;;
15480;SDS011;7842;50.904;6.670;2023-05-07T14:09:59;1.60;;;1.50;;
15480;SDS011;7842;50.904;6.670;2023-05-07T14:12:25;2.37;;;1.40;;
15480;SDS011;7842;50.904;6.670;2023-05-07T14:14:50;3.53;;;1.67;;
15480;SDS011;7842;50.904;6.670;2023-05-07T14:17:16;2.87;;;1.77;;
15480;SDS011;7842;50.904;6.670;2023-05-07T14:19:43;2.53;;;1.55;;
15480;SDS011;7842;50.904;6.670;2023-05-07T14:22:09;3.17;;;1.67;;
15480;SDS011;7842;50.904;6.670;2023-05-07T14:24:35;2.58;;;1.73;;
15480;SDS011;7842;50.904;6.670;2023-05-07T14:27:01;3.47;;;1.75;;
15480;SDS011;7842;50.904;6.670;2023-05-07T14:29:27;2.13;;;1.60;;
15480;SDS011;7842;50.904;6.670;2023-05-07T14:31:53;5.30;;;1.90;;
15480;SDS011;7842;50.904;6.670;2023-05-07T14:34:18;2.70;;;2.10;;
15480;SDS011;7842;50.904;6.670;2023-05-07T14:36:44;3.07;;;2.00;;
15480;SDS011;7842;50.904;6.670;2023-05-07T14:39:12;2.47;;;2.27;;
15480;SDS011;7842;50.904;6.670;2023-05-07T14:41:38;3.38;;;2.60;;
15480;SDS011;7842;50.904;6.670;2023-05-07T14:44:03;3.57;;;3.27;;
15480;SDS011;7842;50.904;6.670;2023-05-07T14:46:29;3.87;;;3.20;;
15480;SDS011;7842;50.904;6.670;2023-05-07T14:48:58;3.63;;;3.33;;
15480;SDS011;7842;50.904;6.670;2023-05-07T14:51:24;3.83;;;3.33;;
15480;SDS011;7842;50.904;6.670;2023-05-07T14:53:50;4.05;;;3.65;;
15480;SDS011;7842;50.904;6.670;2023-05-07T14:56:16;4.63;;;3.80;;
15480;SDS011;7842;50.904;6.670;2023-05-07T14:58:47;4.40;;;4.00;;
15480;SDS011;7842;50.904;6.670;2023-05-07T15:01:14;6.10;;;4.40;;